Time;durP1;ratioP1;P1;durP2;ratioP2;P2;SDS_P1;SDS_P2;PMS_P1;PMS_P2;Temp;Humidity;BMP_temperature;BMP_pressure;BME280_temperature;BME280_humidity;BME280_pressure;Samples;Min_cycle;Max_cycle;Signal;HPM_P1;HPM_P2
2024/04/20 00:01:19;;;;;;;13.55;7.35;;;;;;;9.29;62.96;99448.91;5523089;25;20093;-58
2024/04/20 00:03:55;;;;;;;11.65;6.85;;;;;;;9.31;62.38;99447.00;5522565;25;20318;-59
2024/04/20 00:06:25;;;;;;;10.75;6.53;;;;;;;9.35;61.89;99437.81;5522514;25;20004;-59
2024/04/20 00:08:55;;;;;;;11.43;6.82;;;;;;;9.24;62.94;99445.69;5522443;25;20009;-59
2024/04/20 00:11:27;;;;;;;12.52;6.97;;;;;;;9.26;62.42;99438.44;5522762;25;20008;-59
2024/04/20 00:13:57;;;;;;;11.68;7.07;;;;;;;9.34;61.91;99438.78;5522750;25;20128;-60
2024/04/20 00:16:27;;;;;;;10.32;6.03;;;;;;;9.37;61.64;99441.25;5522601;25;20047;-59
2024/04/20 00:19:00;;;;;;;10.45;6.45;;;;;;;9.38;61.38;99427.84;5523005;25;20129;-60
2024/04/20 00:21:31;;;;;;;10.77;5.68;;;;;;;9.43;61.04;99435.50;5522650;25;20113;-57
2024/04/20 00:24:02;;;;;;;10.02;6.07;;;;;;;9.48;61.05;99432.53;5522571;25;20332;-59
2024/04/20 00:26:33;;;;;;;10.73;6.20;;;;;;;9.42;61.74;99439.13;5522272;25;20009;-58
2024/04/20 00:29:04;;;;;;;10.13;6.28;;;;;;;9.43;61.38;99432.84;5522478;25;20034;-61
2024/04/20 00:31:35;;;;;;;8.57;5.85;;;;;;;9.49;60.98;99434.25;5522413;25;20033;-59
2024/04/20 00:34:08;;;;;;;10.68;6.72;;;;;;;9.28;62.05;99431.25;5522234;25;19993;-60
2024/04/20 00:36:39;;;;;;;9.00;5.60;;;;;;;9.13;62.14;99433.97;5522291;25;19997;-59
2024/04/20 00:39:09;;;;;;;10.27;6.03;;;;;;;9.06;62.22;99429.16;5522219;25;20009;-59
2024/04/20 00:41:40;;;;;;;12.07;6.63;;;;;;;9.12;62.25;99436.72;5522296;25;20012;-58
2024/04/20 00:44:10;;;;;;;10.18;6.00;;;;;;;9.08;62.52;99437.91;5522222;25;20004;-58
2024/04/20 00:46:40;;;;;;;10.13;5.93;;;;;;;9.20;61.81;99434.41;5522333;25;20065;-59
2024/04/20 00:49:14;;;;;;;8.73;5.90;;;;;;;9.34;61.45;99426.34;5522258;25;20001;-58
2024/04/20 00:51:46;;;;;;;9.13;5.65;;;;;;;9.28;61.54;99426.78;5522013;25;20005;-59
2024/04/20 00:54:17;;;;;;;9.85;5.68;;;;;;;8.99;62.31;99425.22;5521847;25;19993;-58
2024/04/20 00:56:47;;;;;;;10.68;6.72;;;;;;;8.86;62.50;99417.19;5521720;25;20005;-58
2024/04/20 00:59:18;;;;;;;10.30;6.28;;;;;;;8.71;63.18;99431.50;5521651;25;20005;-59
2024/04/20 01:01:49;;;;;;;12.63;6.45;;;;;;;8.70;63.55;99420.00;5521804;25;20073;-59
2024/04/20 01:04:22;;;;;;;13.50;6.53;;;;;;;8.72;63.07;99422.56;5521814;25;20402;-60
2024/04/20 01:06:52;;;;;;;;;;;;;;;8.86;62.49;99419.84;5522230;25;20141;-58
2024/04/20 01:09:23;;;;;;;9.45;5.57;;;;;;;8.74;62.31;99420.66;5521736;25;19923;-59
2024/04/20 01:11:56;;;;;;;10.82;5.70;;;;;;;8.83;62.21;99420.06;5525071;25;19993;-59
2024/04/20 01:14:26;;;;;;;10.20;6.05;;;;;;;8.85;62.56;99426.13;5525180;25;20029;-60
2024/04/20 01:16:57;;;;;;;10.90;5.88;;;;;;;8.74;61.92;99426.81;5525146;25;20367;-59
2024/04/20 01:19:27;;;;;;;12.18;6.70;;;;;;;8.73;62.35;99424.28;5525432;25;20008;-59
2024/04/20 01:21:58;;;;;;;11.50;5.68;;;;;;;8.67;62.55;99420.19;5525190;25;20314;-60
2024/04/20 01:24:30;;;;;;;12.93;6.53;;;;;;;8.66;62.51;99426.47;5525549;25;20322;-59
2024/04/20 01:27:03;;;;;;;10.63;6.05;;;;;;;8.65;62.97;99426.56;5525121;25;20007;-61
2024/04/20 01:29:33;;;;;;;11.23;5.18;;;;;;;8.82;62.04;99421.84;5525460;25;19993;-59
2024/04/20 01:32:03;;;;;;;10.50;5.88;;;;;;;8.92;61.94;99422.09;5525068;25;20063;-58
2024/04/20 01:34:31;;;;;;;9.95;5.80;;;;;;;9.04;61.44;99423.94;5525240;25;20080;-58
2024/04/20 01:37:01;;;;;;;11.27;5.82;;;;;;;8.91;61.35;99428.38;5524970;25;19994;-59
2024/04/20 01:39:32;;;;;;;9.55;5.90;;;;;;;9.07;62.07;99423.75;5525314;25;19993;-59
2024/04/20 01:42:05;;;;;;;8.93;5.25;;;;;;;9.01;61.21;99418.81;5525132;25;20061;-59
2024/04/20 01:44:36;;;;;;;;;;;;;;;8.87;62.08;99418.88;5525698;25;20358;-60
2024/04/20 01:47:06;;;;;;;10.27;5.93;;;;;;;8.88;62.81;99418.81;5524748;25;19923;-60
2024/04/20 01:49:37;;;;;;;8.98;5.30;;;;;;;8.67;62.26;99422.84;5524852;25;20008;-60
2024/04/20 01:52:07;;;;;;;9.63;5.47;;;;;;;8.85;62.25;99418.13;5524866;25;20004;-60
2024/04/20 01:54:38;;;;;;;10.15;5.75;;;;;;;8.88;62.63;99418.81;5524953;25;20318;-59
2024/04/20 01:57:12;;;;;;;11.27;6.20;;;;;;;8.70;62.58;99408.53;5524733;25;20001;-60
2024/04/20 01:59:42;;;;;;;8.25;5.68;;;;;;;8.76;62.34;99410.75;5524775;25;20026;-59
2024/04/20 02:02:13;;;;;;;11.13;5.68;;;;;;;8.80;62.24;99410.47;5524459;25;20002;-59
2024/04/20 02:04:43;;;;;;;9.45;5.40;;;;;;;8.67;62.52;99414.88;5524459;25;20009;-59
2024/04/20 02:07:13;;;;;;;8.35;5.45;;;;;;;8.85;62.28;99418.13;5524686;25;19998;-59
2024/04/20 02:09:45;;;;;;;9.75;5.45;;;;;;;8.71;62.79;99415.53;5524377;25;19993;-59
2024/04/20 02:12:18;;;;;;;8.85;5.80;;;;;;;8.56;63.38;99412.91;5524314;25;19997;-59
2024/04/20 02:14:49;;;;;;;;;;;;;;;8.35;64.32;99421.44;5524946;25;20033;-58
2024/04/20 02:17:19;;;;;;;9.20;5.47;;;;;;;8.29;64.37;99415.53;5524112;25;19947;-59
2024/04/20 02:19:49;;;;;;;12.73;5.82;;;;;;;8.25;64.70;99410.50;5523797;25;20458;-58
2024/04/20 02:22:20;;;;;;;8.85;5.35;;;;;;;8.36;63.03;99410.72;5523985;25;20457;-59
2024/04/20 02:24:50;;;;;;;8.30;5.18;;;;;;;8.33;63.14;99405.56;5524143;25;20004;-57
2024/04/20 02:27:24;;;;;;;9.93;5.55;;;;;;;8.47;62.63;99402.88;5524149;25;20069;-59
2024/04/20 02:29:53;;;;;;;9.23;5.35;;;;;;;8.56;62.10;99407.59;5523963;25;20004;-60
2024/04/20 02:32:24;;;;;;;9.40;5.13;;;;;;;8.54;62.25;99411.31;5524130;25;19993;-58
2024/04/20 02:34:55;;;;;;;8.70;5.10;;;;;;;8.66;61.46;99409.66;5523824;25;20134;-58
2024/04/20 02:37:25;;;;;;;8.10;5.10;;;;;;;8.62;61.02;99410.84;5523729;25;20489;-57
2024/04/20 02:39:56;;;;;;;8.02;4.95;;;;;;;8.55;61.10;99415.69;5524169;25;21016;-59
2024/04/20 02:42:29;;;;;;;7.80;4.70;;;;;;;8.80;60.50;99417.59;5523738;25;19997;-58
2024/04/20 02:44:56;;;;;;;7.80;4.60;;;;;;;8.96;59.75;99407.63;5523772;25;20129;-60
2024/04/20 02:47:27;;;;;;;8.25;4.80;;;;;;;9.02;59.60;99412.56;5523905;25;19990;-59
2024/04/20 02:49:58;;;;;;;8.95;5.15;;;;;;;8.86;59.92;99419.84;5523935;25;20004;-59
2024/04/20 02:52:29;;;;;;;7.45;4.63;;;;;;;8.87;59.71;99410.91;5523659;25;20005;-57
2024/04/20 02:54:59;;;;;;;6.20;4.22;;;;;;;9.00;59.61;99419.78;5523700;25;20004;-58
2024/04/20 02:57:32;;;;;;;7.05;4.40;;;;;;;9.12;58.87;99426.94;5523600;25;19998;-57
2024/04/20 03:00:02;;;;;;;6.32;4.32;;;;;;;9.15;58.63;99417.88;5524105;25;19997;-58
2024/04/20 03:02:33;;;;;;;7.05;4.75;;;;;;;9.05;58.89;99420.31;5523801;25;20065;-57
2024/04/20 03:05:04;;;;;;;7.47;4.50;;;;;;;8.95;59.22;99429.88;5523667;25;20000;-58
2024/04/20 03:07:35;;;;;;;7.32;4.68;;;;;;;8.95;58.86;99426.34;5523661;25;20005;-58
2024/04/20 03:10:06;;;;;;;6.68;4.32;;;;;;;9.09;58.66;99435.13;5523617;25;19994;-59
2024/04/20 03:12:39;;;;;;;7.10;4.47;;;;;;;9.16;59.01;99443.53;5523455;25;20025;-59
2024/04/20 03:15:10;;;;;;;7.90;4.65;;;;;;;9.11;59.15;99441.19;5523548;25;19997;-58
2024/04/20 03:17:40;;;;;;;9.55;4.45;;;;;;;9.21;58.97;99440.59;5523358;25;20025;-57
2024/04/20 03:20:11;;;;;;;8.15;4.57;;;;;;;9.09;59.07;99435.13;5523268;25;19998;-58
2024/04/20 03:22:42;;;;;;;8.00;4.35;;;;;;;9.00;59.62;99440.22;5523239;25;20009;-59
2024/04/20 03:25:12;;;;;;;7.35;4.38;;;;;;;8.96;60.18;99447.53;5523174;25;19993;-59
2024/04/20 03:27:46;;;;;;;11.15;4.90;;;;;;;8.68;59.96;99442.31;5523328;25;20005;-59
2024/04/20 03:30:16;;;;;;;8.00;4.78;;;;;;;8.44;60.14;99439.44;5523207;25;20021;-58
2024/04/20 03:32:49;;;;;;;8.35;4.82;;;;;;;8.43;60.80;99438.59;5522092;25;20299;-59
2024/04/20 03:35:20;;;;;;;7.10;4.32;;;;;;;8.40;61.29;99435.28;5523230;25;20004;-58
2024/04/20 03:37:50;;;;;;;7.97;5.00;;;;;;;8.42;61.16;99433.38;5522968;25;19994;-59
2024/04/20 03:40:21;;;;;;;7.75;4.40;;;;;;;8.57;60.77;99432.38;5523077;25;19997;-59
2024/04/20 03:42:54;;;;;;;7.95;4.97;;;;;;;8.59;60.65;99428.69;5522996;25;20006;-60
2024/04/20 03:45:25;;;;;;;7.40;4.90;;;;;;;8.44;61.56;99435.00;5522946;25;19993;-60
2024/04/20 03:47:55;;;;;;;8.80;4.82;;;;;;;8.44;61.04;99435.00;5522928;25;19998;-60
2024/04/20 03:50:26;;;;;;;8.57;4.43;;;;;;;8.58;60.73;99442.06;5522925;25;19997;-59
2024/04/20 03:52:56;;;;;;;7.18;4.40;;;;;;;8.43;60.86;99443.91;5522748;25;19997;-59
2024/04/20 03:55:27;;;;;;;8.60;5.07;;;;;;;8.28;61.03;99452.81;5522631;25;20093;-59
2024/04/20 03:58:00;;;;;;;7.78;4.70;;;;;;;8.19;61.99;99448.94;5522821;25;20363;-59
2024/04/20 04:00:31;;;;;;;8.13;5.20;;;;;;;8.07;62.03;99447.06;5522667;25;20005;-57
2024/04/20 04:03:01;;;;;;;9.52;5.15;;;;;;;8.29;62.08;99443.91;5522687;25;20024;-59
2024/04/20 04:05:31;;;;;;;9.98;4.78;;;;;;;8.44;61.53;99456.25;5522733;25;20012;-58
2024/04/20 04:08:02;;;;;;;8.40;4.78;;;;;;;8.62;61.40;99464.00;5522534;25;20007;-58
2024/04/20 04:10:32;;;;;;;8.75;4.78;;;;;;;8.67;60.70;99456.56;5522591;25;20320;-56
2024/04/20 04:13:06;;;;;;;9.20;4.68;;;;;;;8.64;61.09;99459.44;5522390;25;20307;-59
2024/04/20 04:15:36;;;;;;;;;;;;;;;8.64;61.62;99443.47;5523104;25;20165;-59
2024/04/20 04:18:07;;;;;;;9.45;5.25;;;;;;;8.74;60.78;99449.91;5522510;25;19935;-58
2024/04/20 04:20:37;;;;;;;9.48;5.35;;;;;;;8.82;60.89;99460.91;5522467;25;20365;-59
2024/04/20 04:23:08;;;;;;;7.25;4.88;;;;;;;8.95;61.11;99452.94;5522727;25;20466;-59
2024/04/20 04:25:39;;;;;;;10.40;5.32;;;;;;;9.07;60.38;99466.31;5500961;25;20447;-57
2024/04/20 04:28:11;;;;;;;8.65;5.30;;;;;;;9.02;59.97;99455.13;5485379;26;20006;-58
2024/04/20 04:30:42;;;;;;;11.05;5.35;;;;;;;8.92;60.15;99467.31;5484812;26;20407;-58
2024/04/20 04:33:12;;;;;;;8.65;5.30;;;;;;;8.94;60.32;99460.09;5485098;26;20036;-60
2024/04/20 04:35:42;;;;;;;10.32;5.55;;;;;;;9.07;59.47;99468.97;5484976;26;20010;-59
2024/04/20 04:38:13;;;;;;;8.05;4.80;;;;;;;9.20;59.27;99466.34;5485087;26;20000;-59
2024/04/20 04:40:43;;;;;;;8.57;4.90;;;;;;;9.17;59.38;99462.09;5484820;26;20034;-59
2024/04/20 04:43:16;;;;;;;10.18;5.15;;;;;;;9.23;59.16;99470.59;5484848;25;19994;-57
2024/04/20 04:45:46;;;;;;;6.82;4.40;;;;;;;9.20;59.78;99471.66;5486609;26;20071;-59
2024/04/20 04:48:18;;;;;;;10.93;5.10;;;;;;;9.41;59.32;99480.84;5488077;26;19998;-58
2024/04/20 04:50:51;;;;;;;9.43;5.47;;;;;;;9.45;59.27;99492.13;5488266;26;19995;-60
2024/04/20 04:53:21;;;;;;;9.65;4.78;;;;;;;9.37;58.61;99489.16;5488227;26;20008;-58
2024/04/20 04:55:51;;;;;;;8.93;5.57;;;;;;;9.46;58.76;99484.09;5488339;26;19998;-60
2024/04/20 04:58:24;;;;;;;9.40;5.13;;;;;;;9.53;58.74;99478.31;5488276;26;20005;-59
2024/04/20 05:00:54;;;;;;;8.40;5.47;;;;;;;9.79;56.91;99481.88;5488358;26;20320;-58
2024/04/20 05:03:24;;;;;;;7.68;4.93;;;;;;;10.08;55.92;99480.69;5488279;26;20047;-59
2024/04/20 05:05:55;;;;;;;7.47;4.28;;;;;;;10.30;54.89;99488.03;5488472;26;20434;-58
2024/04/20 05:08:26;;;;;;;9.85;4.07;;;;;;;10.38;54.14;99492.84;5488339;26;20070;-59
2024/04/20 05:10:57;;;;;;;6.80;3.83;;;;;;;10.59;53.31;99501.97;5489777;26;20013;-58
2024/04/20 05:13:29;;;;;;;7.45;3.90;;;;;;;10.42;51.47;99504.97;5488432;26;20070;-60
2024/04/20 05:15:59;;;;;;;6.07;3.50;;;;;;;10.44;51.57;99513.75;5488250;26;19998;-59
2024/04/20 05:18:30;;;;;;;6.25;3.67;;;;;;;10.36;51.19;99508.94;5487996;26;20785;-57
2024/04/20 05:21:00;;;;;;;9.27;4.07;;;;;;;10.54;51.27;99510.31;5487985;26;20455;-58
2024/04/20 05:23:31;;;;;;;6.85;3.53;;;;;;;10.76;51.23;99516.75;5487787;26;20074;-57
2024/04/20 05:26:02;;;;;;;5.28;3.15;;;;;;;10.78;51.84;99523.66;5487848;26;20351;-58
2024/04/20 05:28:35;;;;;;;5.28;3.13;;;;;;;10.77;52.22;99516.63;5487944;26;20009;-57
2024/04/20 05:31:06;;;;;;;8.05;2.50;;;;;;;10.97;51.90;99522.34;5487753;26;20022;-58
2024/04/20 05:33:37;;;;;;;4.00;2.58;;;;;;;10.53;54.18;99518.41;5487735;26;20070;-58
2024/04/20 05:36:07;;;;;;;3.53;1.92;;;;;;;10.54;55.28;99520.97;5487399;26;20055;-56
2024/04/20 05:38:37;;;;;;;3.15;1.60;;;;;;;10.53;57.19;99534.41;5487584;26;20322;-58
2024/04/20 05:41:08;;;;;;;3.42;1.20;;;;;;;10.39;58.60;99523.88;5487418;26;20046;-56
2024/04/20 05:43:41;;;;;;;2.03;1.00;;;;;;;10.38;59.38;99532.81;5487627;26;19998;-59
2024/04/20 05:46:13;;;;;;;2.28;1.30;;;;;;;10.42;60.02;99537.84;5487160;26;20000;-59
2024/04/20 05:48:43;;;;;;;3.47;1.10;;;;;;;10.50;59.65;99535.47;5487648;26;20020;-57
2024/04/20 05:51:13;;;;;;;1.85;1.05;;;;;;;10.69;59.60;99534.16;5487542;26;20017;-56
2024/04/20 05:53:43;;;;;;;1.08;0.82;;;;;;;10.65;59.76;99524.69;5487433;26;20358;-58
2024/04/20 05:56:14;;;;;;;1.65;0.80;;;;;;;10.88;59.59;99530.03;5487048;26;20339;-58
2024/04/20 05:58:47;;;;;;;3.20;1.10;;;;;;;10.47;61.37;99529.50;5487464;26;19998;-58
2024/04/20 06:01:18;;;;;;;1.90;1.20;;;;;;;10.54;61.95;99534.31;5487457;26;20427;-57
2024/04/20 06:03:49;;;;;;;2.08;1.05;;;;;;;10.43;62.58;99536.03;5487900;26;19998;-58
2024/04/20 06:06:19;;;;;;;2.78;1.55;;;;;;;10.80;62.05;99535.06;5487330;26;19998;-58
2024/04/20 06:08:50;;;;;;;2.97;1.40;;;;;;;10.96;61.27;99537.50;5487251;26;19994;-57
2024/04/20 06:11:20;;;;;;;2.42;1.17;;;;;;;10.89;61.00;99547.75;5487200;26;19998;-58
2024/04/20 06:13:53;;;;;;;2.10;1.17;;;;;;;11.01;61.08;99545.19;5487411;26;20062;-58
2024/04/20 06:16:28;;;;;;;2.15;0.80;;;;;;;11.05;60.79;99549.31;5487076;26;20546;-56
2024/04/20 06:18:58;;;;;;;0.80;0.60;;;;;;;10.95;60.87;99542.94;5487159;26;20329;-59
2024/04/20 06:21:29;;;;;;;1.35;0.50;;;;;;;11.06;61.16;99549.19;5487142;26;20009;-58
2024/04/20 06:23:59;;;;;;;1.17;0.70;;;;;;;10.94;61.66;99555.44;5486991;26;20392;-59
2024/04/20 06:26:30;;;;;;;0.90;0.52;;;;;;;11.18;61.73;99552.78;5487368;26;20191;-57
2024/04/20 06:29:03;;;;;;;0.85;0.50;;;;;;;11.12;61.98;99559.44;5486911;26;19998;-59
2024/04/20 06:31:33;;;;;;;2.03;0.55;;;;;;;11.01;62.56;99556.69;5487017;26;20070;-57
2024/04/20 06:34:03;;;;;;;1.70;0.70;;;;;;;11.14;62.90;99559.31;5486944;26;20026;-58
2024/04/20 06:36:33;;;;;;;0.85;0.40;;;;;;;11.10;63.09;99561.38;5487011;26;19998;-60
2024/04/20 06:39:06;;;;;;;0.65;0.40;;;;;;;11.26;62.66;99573.56;5486743;26;20002;-58
2024/04/20 06:41:37;;;;;;;0.55;0.50;;;;;;;11.13;63.26;99573.63;5487012;26;19994;-59
2024/04/20 06:44:10;;;;;;;0.90;0.47;;;;;;;11.13;64.14;99577.16;5486572;26;20135;-58
2024/04/20 06:46:40;;;;;;;1.27;0.73;;;;;;;11.22;65.05;99580.13;5486293;26;19998;-60
2024/04/20 06:49:12;;;;;;;1.00;0.60;;;;;;;11.28;65.33;99580.50;5486851;26;20022;-58
2024/04/20 06:51:42;;;;;;;1.88;0.75;;;;;;;11.23;66.94;99593.34;5486608;26;20006;-57
2024/04/20 06:54:13;;;;;;;1.27;0.75;;;;;;;11.42;66.98;99592.84;5486453;26;20030;-57
2024/04/20 06:56:44;;;;;;;1.30;0.73;;;;;;;11.25;69.31;99590.56;5486236;26;20088;-58
2024/04/20 06:59:16;;;;;;;2.95;0.70;;;;;;;11.17;69.91;99596.44;5486006;26;20468;-55
2024/04/20 07:01:47;;;;;;;0.77;0.60;;;;;;;11.23;70.64;99598.69;5486210;26;20006;-57
2024/04/20 07:04:17;;;;;;;1.55;0.60;;;;;;;11.16;72.13;99603.59;5486267;26;20010;-57
2024/04/20 07:06:48;;;;;;;0.98;0.50;;;;;;;11.27;72.85;99609.97;5486228;26;20008;-58
2024/04/20 07:09:18;;;;;;;1.63;0.57;;;;;;;11.23;74.14;99613.84;5485175;26;20047;-57
2024/04/20 07:11:49;;;;;;;1.63;0.70;;;;;;;11.25;74.16;99610.09;5486697;26;19994;-58
2024/04/20 07:14:25;;;;;;;1.77;0.82;;;;;;;11.33;76.02;99617.56;5486240;26;20046;-57
2024/04/20 07:16:55;;;;;;;2.65;1.15;;;;;;;11.39;76.99;99611.78;5486104;26;20006;-58
2024/04/20 07:19:26;;;;;;;2.65;1.33;;;;;;;11.46;78.00;99615.66;5486017;26;20124;-57
2024/04/20 07:21:56;;;;;;;1.30;0.75;;;;;;;11.47;77.41;99620.91;5486268;26;20457;-58
2024/04/20 07:24:26;;;;;;;1.17;0.70;;;;;;;11.48;77.83;99629.75;5486294;26;20074;-58
2024/04/20 07:26:56;;;;;;;1.80;0.85;;;;;;;11.49;79.16;99627.97;5485929;26;20012;-58
2024/04/20 07:29:29;;;;;;;1.27;0.80;;;;;;;11.42;79.16;99620.41;5485928;26;20022;-57
2024/04/20 07:31:59;;;;;;;2.63;1.10;;;;;;;11.50;79.87;99621.66;5486304;26;20074;-60
2024/04/20 07:34:31;;;;;;;1.85;0.93;;;;;;;11.55;81.68;99620.34;5485817;26;19998;-57
2024/04/20 07:37:01;;;;;;;3.10;1.20;;;;;;;11.56;82.13;99622.03;5486046;26;20070;-58
2024/04/20 07:39:32;;;;;;;2.42;1.08;;;;;;;11.56;82.68;99621.19;5486343;26;20079;-54
2024/04/20 07:42:02;;;;;;;2.15;1.15;;;;;;;11.67;81.85;99619.41;5485792;26;20029;-57
2024/04/20 07:44:34;;;;;;;2.53;1.13;;;;;;;11.83;80.73;99621.84;5485833;26;20094;-58
2024/04/20 07:47:05;;;;;;;2.00;1.30;;;;;;;11.95;79.76;99618.22;5485789;26;20025;-58
2024/04/20 07:49:41;;;;;;;2.17;1.05;;;;;;;12.08;79.01;99626.19;5485810;26;20009;-57
2024/04/20 07:52:12;;;;;;;4.00;1.33;;;;;;;12.21;77.62;99623.41;5485886;26;20447;-59
2024/04/20 07:54:42;;;;;;;3.40;1.30;;;;;;;12.26;76.66;99627.47;5485441;26;20016;-55
2024/04/20 07:57:14;;;;;;;6.50;2.88;;;;;;;12.42;74.72;99631.59;5485629;26;20098;-57
2024/04/20 07:59:47;;;;;;;2.75;1.20;;;;;;;12.19;70.77;99625.38;5485610;26;20074;-58
2024/04/20 08:02:17;;;;;;;1.45;1.00;;;;;;;12.50;70.51;99635.38;5486078;26;19998;-58
2024/04/20 08:04:47;;;;;;;1.45;0.85;;;;;;;12.69;69.54;99633.94;5486040;26;20033;-55
2024/04/20 08:07:18;;;;;;;0.93;0.73;;;;;;;12.77;68.80;99642.22;5486007;26;20037;-52
2024/04/20 08:09:48;;;;;;;2.75;1.10;;;;;;;12.61;69.67;99653.28;5485772;26;20006;-57
2024/04/20 08:12:20;;;;;;;2.40;1.00;;;;;;;12.58;70.63;99654.38;5485928;26;20010;-56
2024/04/20 08:14:53;;;;;;;1.52;0.98;;;;;;;12.65;69.93;99648.56;5485855;26;20017;-53
2024/04/20 08:17:23;;;;;;;1.40;0.90;;;;;;;12.68;69.87;99646.47;5485773;26;19994;-58
2024/04/20 08:19:54;;;;;;;1.75;1.10;;;;;;;12.76;69.84;99645.88;5485678;26;19998;-55
2024/04/20 08:22:24;;;;;;;2.10;1.10;;;;;;;12.63;67.51;99653.16;5485461;26;20042;-56
2024/04/20 08:24:55;;;;;;;0.93;0.80;;;;;;;12.51;68.08;99653.13;5485470;26;20022;-59
2024/04/20 08:27:25;;;;;;;1.65;1.00;;;;;;;12.56;67.73;99659.00;5485694;26;19998;-56
2024/04/20 08:29:58;;;;;;;1.65;1.02;;;;;;;12.30;69.08;99649.44;5485420;26;20519;-58
2024/04/20 08:32:28;;;;;;;2.80;1.30;;;;;;;11.61;69.51;99661.78;5485490;26;20014;-56
2024/04/20 08:34:59;;;;;;;2.92;1.27;;;;;;;11.70;71.18;99656.59;5485312;26;20081;-57
2024/04/20 08:37:29;;;;;;;6.25;1.48;;;;;;;12.16;71.38;99654.97;5485545;26;19994;-61
2024/04/20 08:40:00;;;;;;;2.30;1.20;;;;;;;12.49;71.67;99664.94;5489611;26;20008;-57
2024/04/20 08:42:32;;;;;;;3.08;1.50;;;;;;;12.81;70.91;99659.72;5519590;25;20012;-53
2024/04/20 08:45:08;;;;;;;1.80;1.20;;;;;;;12.97;69.37;99659.38;5487668;25;20030;-57
2024/04/20 08:47:45;;;;;;;2.58;1.40;;;;;;;13.14;70.07;99666.94;5483929;26;20078;-55
2024/04/20 08:50:16;;;;;;;3.05;1.65;;;;;;;13.12;67.91;99671.53;5490098;26;19997;-55
2024/04/20 08:52:46;;;;;;;2.15;1.40;;;;;;;13.06;67.13;99672.03;5520638;25;20014;-57
2024/04/20 08:55:18;;;;;;;3.22;1.50;;;;;;;13.26;69.97;99670.47;5520376;25;20005;-58
2024/04/20 08:57:50;;;;;;;2.78;1.67;;;;;;;13.46;72.01;99672.41;5520355;25;20047;-57
2024/04/20 09:00:23;;;;;;;3.28;1.50;;;;;;;13.53;69.93;99676.28;5517207;25;20002;-55
2024/04/20 09:02:53;;;;;;;2.92;1.70;;;;;;;13.73;69.49;99674.66;5520699;25;20029;-57
2024/04/20 09:05:24;;;;;;;3.17;1.70;;;;;;;13.98;68.69;99665.41;5490712;25;20308;-57
2024/04/20 09:07:54;;;;;;;2.83;1.40;;;;;;;13.45;64.17;99678.72;5509007;25;20006;-54
2024/04/20 09:10:24;;;;;;;2.35;1.20;;;;;;;12.97;60.73;99670.94;5499891;26;20002;-57
2024/04/20 09:12:56;;;;;;;1.90;1.10;;;;;;;13.06;63.94;99678.25;5483498;25;20325;-54
2024/04/20 09:15:30;;;;;;;3.25;1.02;;;;;;;13.27;65.89;99682.91;5495226;26;20002;-54
2024/04/20 09:18:01;;;;;;;1.98;0.98;;;;;;;13.09;63.50;99682.50;5482898;26;19998;-54
2024/04/20 09:20:32;;;;;;;1.40;0.80;;;;;;;13.15;63.27;99685.56;5483149;26;20016;-56
2024/04/20 09:23:06;;;;;;;2.22;1.10;;;;;;;12.81;64.43;99691.84;5483276;26;20415;-55
2024/04/20 09:25:37;;;;;;;2.47;1.17;;;;;;;12.17;68.95;99702.16;5486929;26;20002;-55
2024/04/20 09:28:08;;;;;;;3.95;1.40;;;;;;;12.08;73.69;99709.06;5483001;26;20376;-55
2024/04/20 09:30:40;;;;;;;1.35;1.00;;;;;;;11.36;68.37;99705.44;5481320;26;20012;-52
2024/04/20 09:33:14;;;;;;;1.65;0.88;;;;;;;11.46;70.82;99704.66;5486824;26;20014;-54
2024/04/20 09:35:45;;;;;;;3.85;1.40;;;;;;;11.45;68.21;99710.09;5487133;26;20078;-52
2024/04/20 09:38:15;;;;;;;1.75;0.98;;;;;;;11.63;68.46;99700.75;5486875;26;20001;-53
2024/04/20 09:40:48;;;;;;;7.05;1.85;;;;;;;12.16;71.15;99701.31;5484832;26;20002;-58
2024/04/20 09:43:22;;;;;;;2.28;1.20;;;;;;;12.57;65.46;99702.66;5487042;26;20003;-54
2024/04/20 09:45:55;;;;;;;1.42;0.93;;;;;;;12.77;64.42;99706.47;5523063;25;20009;-53
2024/04/20 09:48:28;;;;;;;1.85;0.93;;;;;;;13.08;65.17;99700.38;5522895;25;20006;-54
2024/04/20 09:51:07;;;;;;;2.40;1.02;;;;;;;13.36;66.79;99704.44;5503527;25;20014;-55
2024/04/20 09:53:37;;;;;;;2.88;1.17;;;;;;;13.26;62.21;99697.25;5486368;26;20477;-53
2024/04/20 09:56:09;;;;;;;2.03;0.98;;;;;;;13.57;63.01;99691.13;5486394;26;19998;-56
2024/04/20 09:58:42;;;;;;;6.38;3.25;;;;;;;13.76;63.83;99693.16;5486563;26;20105;-53
2024/04/20 10:01:16;;;;;;;9.88;4.72;;;;;;;13.84;63.41;99695.22;5505315;26;20016;-55
2024/04/20 10:03:47;;;;;;;4.32;1.98;;;;;;;13.78;64.82;99690.34;5516424;25;20443;-54
2024/04/20 10:06:18;;;;;;;2.13;1.20;;;;;;;13.77;64.29;99688.66;5485752;26;20002;-55
2024/04/20 10:08:50;;;;;;;2.63;1.60;;;;;;;13.88;60.31;99693.97;5485493;26;20002;-58
2024/04/20 10:11:22;;;;;;;2.63;1.10;;;;;;;13.84;59.14;99687.16;5483156;26;20058;-54
2024/04/20 10:13:55;;;;;;;1.60;0.98;;;;;;;14.07;59.51;99688.78;5485482;26;20017;-55
2024/04/20 10:16:28;;;;;;;3.00;0.90;;;;;;;14.25;60.94;99686.38;5486335;26;20031;-54
2024/04/20 10:18:58;;;;;;;2.95;1.30;;;;;;;14.22;60.18;99681.28;5486129;26;20109;-55
2024/04/20 10:21:30;;;;;;;2.15;1.20;;;;;;;14.34;60.89;99685.63;5509406;26;20353;-53
2024/04/20 10:24:01;;;;;;;2.00;1.10;;;;;;;14.37;60.84;99684.50;5522382;25;20006;-53
2024/04/20 10:26:33;;;;;;;1.80;1.13;;;;;;;14.19;59.95;99682.41;5522736;25;20404;-57
2024/04/20 10:29:08;;;;;;;2.78;1.30;;;;;;;14.21;60.46;99693.84;5522856;25;20352;-51
2024/04/20 10:31:42;;;;;;;1.27;0.80;;;;;;;13.91;58.96;99691.91;5491080;25;20030;-54
2024/04/20 10:34:13;;;;;;;2.25;0.63;;;;;;;13.59;58.86;99694.53;5485835;26;20002;-54
2024/04/20 10:36:43;;;;;;;1.02;0.75;;;;;;;13.55;58.73;99703.81;5486546;26;19998;-55
2024/04/20 10:39:14;;;;;;;0.82;0.60;;;;;;;13.61;58.89;99695.28;5486013;26;20006;-53
2024/04/20 10:41:44;;;;;;;1.40;0.68;;;;;;;13.57;57.95;99696.47;5483481;26;20074;-56
2024/04/20 10:44:12;;;;;;;2.75;1.58;;;;;;;13.50;56.26;99705.13;5484639;26;20002;-55
2024/04/20 10:46:53;;;;;;;11.85;6.28;;;;;;;13.67;57.23;99693.91;5486771;26;19998;-53
2024/04/20 10:49:25;;;;;;;5.03;2.47;;;;;;;13.96;57.49;99686.16;5486053;26;20010;-54
2024/04/20 10:51:59;;;;;;;2.40;1.40;;;;;;;14.16;56.41;99682.66;5483129;26;20455;-56
2024/04/20 10:54:29;;;;;;;1.50;0.90;;;;;;;14.25;55.36;99683.72;5485009;26;20013;-55
2024/04/20 10:57:01;;;;;;;1.42;0.88;;;;;;;14.39;55.29;99678.03;5485599;26;20010;-51
2024/04/20 10:59:31;;;;;;;1.60;0.88;;;;;;;14.58;55.37;99680.03;5485116;26;20020;-52
2024/04/20 11:02:07;;;;;;;5.32;1.25;;;;;;;14.40;56.17;99684.25;5516134;26;20084;-52
2024/04/20 11:04:41;;;;;;;2.95;1.48;;;;;;;14.72;55.79;99678.84;5521636;25;19997;-50
2024/04/20 11:07:12;;;;;;;3.42;1.00;;;;;;;14.59;54.33;99681.72;5522490;25;20025;-55
2024/04/20 11:09:49;;;;;;;2.45;1.10;;;;;;;14.53;53.42;99677.72;5521010;25;20012;-53
2024/04/20 11:12:28;;;;;;;2.13;1.20;;;;;;;14.77;54.18;99679.31;5485435;26;20002;-53
2024/04/20 11:15:03;;;;;;;3.17;1.33;;;;;;;14.79;53.87;99675.50;5505379;26;20001;-54
2024/04/20 11:17:37;;;;;;;4.40;1.13;;;;;;;14.66;54.12;99674.84;5522067;25;20077;-57
2024/04/20 11:20:12;;;;;;;3.53;1.50;;;;;;;14.58;54.49;99670.16;5516629;25;20009;-57
2024/04/20 11:22:42;;;;;;;2.35;1.30;;;;;;;14.58;54.69;99672.00;5520946;25;20363;-54
2024/04/20 11:25:12;;;;;;;2.67;1.40;;;;;;;14.52;55.03;99678.72;5498759;25;20086;-55
2024/04/20 11:27:45;;;;;;;2.95;1.10;;;;;;;13.80;52.21;99672.28;5484652;26;20013;-56
2024/04/20 11:30:16;;;;;;;;;;;;;;;13.59;53.22;99682.97;5491513;26;19997;-55
2024/04/20 11:32:57;;;;;;;1.38;1.08;;;;;;;13.26;52.72;99675.84;5486369;25;19931;-53
2024/04/20 11:35:28;;;;;;;1.33;0.73;;;;;;;13.53;52.19;99672.75;5510655;26;20033;-54
2024/04/20 11:38:04;;;;;;;2.05;0.90;;;;;;;13.65;52.66;99664.56;5511163;25;19998;-54
2024/04/20 11:40:34;;;;;;;2.58;1.15;;;;;;;13.76;53.96;99666.34;5508700;25;20011;-56
2024/04/20 11:43:05;;;;;;;1.85;0.90;;;;;;;13.81;53.75;99663.31;5491463;25;20371;-55
2024/04/20 11:45:36;;;;;;;3.35;1.20;;;;;;;13.99;53.97;99669.78;5505213;26;20071;-57
2024/04/20 11:48:10;;;;;;;2.53;1.10;;;;;;;14.08;54.08;99662.81;5484594;26;20002;-54
2024/04/20 11:50:43;;;;;;;2.08;1.10;;;;;;;14.20;53.97;99662.66;5491928;26;20010;-55
2024/04/20 11:55:55;;;;;;;1.13;0.70;;;;;;;14.43;51.65;99663.38;5489145;25;19997;-56
2024/04/20 11:58:25;;;;;;;2.05;0.70;;;;;;;14.42;52.26;99660.81;5520815;25;20001;-57